createdAt,value
2023-04-29T00:01:36.681Z,9.63
2023-04-29T00:04:04.114Z,9.52
2023-04-29T00:06:31.347Z,9.32
2023-04-29T00:08:59.313Z,9.88
2023-04-29T00:11:26.532Z,9.70
2023-04-29T00:13:53.846Z,10.43
2023-04-29T00:16:21.187Z,9.65
2023-04-29T00:18:48.760Z,10.40
2023-04-29T00:21:16.072Z,9.90
2023-04-29T00:23:43.422Z,9.32
2023-04-29T00:26:10.723Z,10.65
2023-04-29T00:28:37.975Z,10.15
2023-04-29T00:31:05.664Z,10.13
2023-04-29T00:33:33.561Z,8.65
2023-04-29T00:36:01.164Z,10.23
2023-04-29T00:38:28.420Z,9.20
2023-04-29T00:40:56.359Z,9.18
2023-04-29T00:43:23.792Z,10.88
2023-04-29T00:45:51.424Z,10.52
2023-04-29T00:48:18.897Z,9.40
2023-04-29T00:50:46.109Z,9.10
2023-04-29T00:53:14.115Z,9.80
2023-04-29T00:55:43.402Z,10.10
2023-04-29T00:58:11.501Z,9.85
2023-04-29T01:00:38.754Z,8.63
2023-04-29T01:03:06.595Z,8.00
2023-04-29T01:05:34.321Z,9.40
2023-04-29T01:08:20.129Z,10.05
2023-04-29T01:13:51.237Z,9.07
2023-04-29T01:16:39.436Z,9.07
2023-04-29T01:19:38.821Z,8.65
2023-04-29T01:22:08.381Z,8.95
2023-04-29T01:24:35.726Z,10.38
2023-04-29T01:27:24.425Z,9.20
2023-04-29T01:30:25.636Z,9.73
2023-04-29T01:33:40.444Z,10.07
2023-04-29T01:36:26.375Z,9.23
2023-04-29T01:39:07.963Z,9.13
2023-04-29T01:41:56.827Z,9.05
2023-04-29T01:44:27.582Z,9.45
2023-04-29T01:46:55.541Z,9.23
2023-04-29T01:49:29.260Z,8.75
2023-04-29T01:51:57.272Z,9.43
2023-04-29T01:54:24.485Z,8.93
2023-04-29T01:56:52.486Z,8.95
2023-04-29T01:59:19.677Z,9.95
2023-04-29T02:01:46.829Z,8.70
2023-04-29T02:04:14.252Z,9.60
2023-04-29T02:06:41.660Z,8.25
2023-04-29T02:09:08.843Z,10.70
2023-04-29T02:11:36.176Z,9.68
2023-04-29T02:14:03.501Z,8.57
2023-04-29T02:16:30.768Z,9.70
2023-04-29T02:18:58.281Z,9.48
2023-04-29T02:21:25.959Z,9.68
2023-04-29T02:23:54.818Z,10.07
2023-04-29T02:26:23.087Z,11.10
2023-04-29T02:28:50.803Z,9.48
2023-04-29T02:31:17.950Z,9.27
2023-04-29T02:33:45.200Z,10.07
2023-04-29T02:36:12.331Z,10.50
2023-04-29T02:38:39.405Z,10.55
2023-04-29T02:41:06.741Z,14.15
2023-04-29T02:43:34.163Z,10.35
2023-04-29T02:46:01.471Z,10.10
2023-04-29T02:48:28.698Z,10.60
2023-04-29T02:50:55.906Z,11.38
2023-04-29T02:53:23.587Z,12.65
2023-04-29T02:55:50.587Z,11.55
2023-04-29T02:58:17.966Z,12.50
2023-04-29T03:00:45.200Z,11.23
2023-04-29T03:03:12.591Z,10.73
2023-04-29T03:05:40.243Z,11.45
2023-04-29T03:08:07.984Z,10.90
2023-04-29T03:10:35.254Z,11.52
2023-04-29T03:13:02.705Z,12.05
2023-04-29T03:15:29.793Z,11.02
2023-04-29T03:17:57.142Z,10.05
2023-04-29T03:20:25.058Z,10.95
2023-04-29T03:22:52.360Z,10.20
2023-04-29T03:25:19.706Z,11.57
2023-04-29T03:27:47.506Z,10.82
2023-04-29T03:30:14.867Z,10.95
2023-04-29T03:32:42.256Z,9.77
2023-04-29T03:35:15.589Z,12.02
2023-04-29T03:37:44.841Z,12.32
2023-04-29T03:40:13.029Z,14.45
2023-04-29T03:42:40.300Z,13.35
2023-04-29T03:45:08.151Z,12.18
2023-04-29T03:47:36.514Z,12.32
2023-04-29T03:50:04.873Z,12.52
2023-04-29T03:52:32.465Z,13.07
2023-04-29T03:54:59.535Z,12.30
2023-04-29T03:57:27.098Z,14.95
2023-04-29T03:59:54.796Z,14.23
2023-04-29T04:02:22.320Z,12.77
2023-04-29T04:04:49.860Z,13.82
2023-04-29T04:07:17.423Z,14.70
2023-04-29T04:09:44.613Z,13.30
2023-04-29T04:12:11.992Z,14.85
2023-04-29T04:14:39.102Z,14.15
2023-04-29T04:17:06.574Z,14.63
2023-04-29T04:19:34.062Z,13.05
2023-04-29T04:22:03.467Z,12.60
2023-04-29T04:24:30.731Z,12.35
2023-04-29T04:26:58.047Z,13.07
2023-04-29T04:29:25.181Z,13.23
2023-04-29T04:31:52.404Z,13.50
2023-04-29T04:34:20.025Z,11.90
2023-04-29T04:36:47.433Z,12.70
2023-04-29T04:39:14.615Z,12.88
2023-04-29T04:41:41.907Z,13.95
2023-04-29T04:44:09.065Z,11.75
2023-04-29T04:46:37.074Z,12.48
2023-04-29T04:49:04.190Z,11.45
2023-04-29T04:51:31.591Z,12.30
2023-04-29T04:53:58.730Z,11.90
2023-04-29T04:56:25.950Z,12.70
2023-04-29T04:58:53.217Z,11.52
2023-04-29T05:01:20.704Z,13.98
2023-04-29T05:03:48.590Z,12.30
2023-04-29T05:06:16.212Z,12.02
2023-04-29T05:08:43.428Z,12.30
2023-04-29T05:11:21.390Z,12.23
2023-04-29T05:13:49.271Z,14.52
2023-04-29T05:16:19.011Z,16.38
2023-04-29T05:18:46.838Z,16.13
2023-04-29T05:21:15.984Z,16.40
2023-04-29T05:23:44.892Z,15.85
2023-04-29T05:26:12.113Z,16.33
2023-04-29T05:28:39.468Z,15.82
2023-04-29T05:31:06.918Z,14.45
2023-04-29T05:33:34.347Z,15.02
2023-04-29T05:36:01.863Z,17.35
2023-04-29T05:38:29.371Z,14.90
2023-04-29T05:40:57.200Z,13.10
2023-04-29T05:43:25.100Z,14.32
2023-04-29T05:45:52.237Z,12.80
2023-04-29T05:48:19.689Z,12.52
2023-04-29T05:50:48.485Z,14.10
2023-04-29T05:53:15.856Z,12.38
2023-04-29T05:55:45.280Z,12.70
2023-04-29T05:58:13.551Z,12.43
2023-04-29T06:00:41.098Z,11.93
2023-04-29T06:03:08.277Z,12.90
2023-04-29T06:05:36.186Z,11.75
2023-04-29T06:08:05.034Z,12.43
2023-04-29T06:10:33.617Z,10.90
2023-04-29T06:13:01.446Z,12.60
2023-04-29T06:15:28.876Z,11.23
2023-04-29T06:17:56.165Z,11.52
2023-04-29T06:20:23.418Z,11.57
2023-04-29T06:22:52.098Z,9.93
2023-04-29T06:25:19.320Z,11.10
2023-04-29T06:27:46.676Z,9.25
2023-04-29T06:30:14.135Z,10.75
2023-04-29T06:32:41.492Z,8.57
2023-04-29T06:35:09.377Z,9.20
2023-04-29T06:37:38.093Z,9.13
2023-04-29T06:40:06.770Z,8.75
2023-04-29T06:42:34.437Z,8.55
2023-04-29T06:45:01.867Z,8.82
2023-04-29T06:47:29.582Z,8.55
2023-04-29T06:49:56.816Z,8.30
2023-04-29T06:52:24.062Z,8.43
2023-04-29T06:54:51.347Z,8.55
2023-04-29T06:57:18.648Z,7.43
2023-04-29T06:59:45.864Z,7.50
2023-04-29T07:02:13.936Z,8.30
2023-04-29T07:04:41.812Z,7.88
2023-04-29T07:07:08.946Z,7.10
2023-04-29T07:09:36.287Z,7.07
2023-04-29T07:12:05.008Z,6.82
2023-04-29T07:14:32.516Z,6.88
2023-04-29T07:16:59.963Z,6.13
2023-04-29T07:19:27.411Z,7.13
2023-04-29T07:21:54.630Z,8.15
2023-04-29T07:24:23.832Z,5.60
2023-04-29T07:26:51.211Z,5.90
2023-04-29T07:29:18.545Z,5.43
2023-04-29T07:31:45.765Z,5.53
2023-04-29T07:34:13.380Z,5.82
2023-04-29T07:36:42.648Z,5.05
2023-04-29T07:39:10.032Z,5.57
2023-04-29T07:41:37.112Z,5.70
2023-04-29T07:44:04.401Z,5.65
2023-04-29T07:46:31.785Z,5.18
2023-04-29T07:48:59.086Z,5.82
2023-04-29T07:51:29.374Z,8.15
2023-04-29T07:53:56.533Z,5.65
2023-04-29T07:56:24.015Z,4.65
2023-04-29T07:58:51.114Z,5.68
2023-04-29T08:01:18.294Z,5.68
2023-04-29T08:03:46.104Z,6.95
2023-04-29T08:06:13.867Z,5.68
2023-04-29T08:08:41.363Z,5.05
2023-04-29T08:11:08.561Z,4.80
2023-04-29T08:13:35.550Z,5.15
2023-04-29T08:16:02.819Z,7.38
2023-04-29T08:18:30.298Z,5.13
2023-04-29T08:20:57.554Z,5.43
2023-04-29T08:23:27.640Z,5.05
2023-04-29T08:25:57.655Z,5.45
2023-04-29T08:28:25.008Z,6.68
2023-04-29T08:30:52.321Z,4.38
2023-04-29T08:33:19.674Z,4.63
2023-04-29T08:35:46.924Z,7.43
2023-04-29T08:38:14.464Z,4.57
2023-04-29T08:40:47.302Z,4.20
2023-04-29T08:43:17.520Z,4.22
2023-04-29T08:45:45.560Z,4.20
2023-04-29T08:48:13.936Z,4.20
2023-04-29T08:50:42.524Z,5.03
2023-04-29T08:53:14.496Z,4.50
2023-04-29T08:55:47.012Z,4.72
2023-04-29T08:58:15.635Z,5.00
2023-04-29T09:00:44.433Z,4.05
2023-04-29T09:03:36.099Z,5.15
2023-04-29T09:06:05.624Z,4.28
2023-04-29T09:08:36.499Z,3.97
2023-04-29T09:11:05.522Z,4.78
2023-04-29T09:13:33.288Z,3.90
2023-04-29T09:16:00.569Z,4.03
2023-04-29T09:18:45.269Z,3.55
2023-04-29T09:21:24.270Z,3.83
2023-04-29T09:23:54.111Z,4.03
2023-04-29T09:26:22.669Z,4.22
2023-04-29T09:29:08.412Z,4.30
2023-04-29T09:31:37.582Z,4.03
2023-04-29T09:34:04.849Z,3.50
2023-04-29T09:36:48.213Z,5.00
2023-04-29T09:39:20.567Z,4.32
2023-04-29T09:41:53.549Z,6.30
2023-04-29T09:44:23.771Z,3.42
2023-04-29T09:46:58.833Z,3.65
2023-04-29T09:49:37.636Z,2.85
2023-04-29T09:52:14.313Z,3.25
2023-04-29T09:54:43.168Z,3.53
2023-04-29T09:57:12.448Z,3.53
2023-04-29T09:59:41.024Z,3.22
2023-04-29T10:02:16.057Z,3.63
2023-04-29T10:04:46.675Z,3.45
2023-04-29T10:07:18.440Z,3.45
2023-04-29T10:09:49.764Z,3.78
2023-04-29T10:12:18.815Z,3.65
2023-04-29T10:15:02.231Z,2.65
2023-04-29T10:17:35.310Z,3.08
2023-04-29T10:20:06.930Z,3.60
2023-04-29T10:22:42.839Z,3.17
2023-04-29T10:25:12.071Z,2.83
2023-04-29T10:27:43.422Z,3.17
2023-04-29T10:30:20.674Z,2.65
2023-04-29T10:32:52.197Z,3.85
2023-04-29T10:35:25.973Z,3.38
2023-04-29T10:37:54.637Z,3.10
2023-04-29T10:40:46.917Z,2.88
2023-04-29T10:43:14.752Z,2.72
2023-04-29T10:45:41.938Z,4.00
2023-04-29T10:48:13.487Z,2.80
2023-04-29T10:50:49.857Z,5.15
2023-04-29T10:53:21.091Z,4.05
2023-04-29T10:55:49.551Z,3.25
2023-04-29T10:58:46.231Z,3.00
2023-04-29T11:01:16.106Z,3.88
2023-04-29T11:04:00.793Z,3.65
2023-04-29T11:06:42.717Z,4.10
2023-04-29T11:09:14.773Z,4.40
2023-04-29T11:11:47.023Z,3.20
2023-04-29T11:14:15.004Z,4.78
2023-04-29T11:16:51.492Z,3.22
2023-04-29T11:19:18.883Z,3.53
2023-04-29T11:21:47.713Z,4.13
2023-04-29T11:24:18.324Z,3.80
2023-04-29T11:26:46.601Z,3.47
2023-04-29T11:29:14.998Z,3.47
2023-04-29T11:31:42.470Z,4.32
2023-04-29T11:34:09.804Z,3.13
2023-04-29T11:36:37.227Z,4.13
2023-04-29T11:39:05.283Z,4.35
2023-04-29T11:41:33.017Z,3.78
2023-04-29T11:44:01.570Z,5.20
2023-04-29T11:46:31.920Z,3.70
2023-04-29T11:49:02.518Z,4.60
2023-04-29T11:51:29.864Z,3.45
2023-04-29T11:54:00.884Z,3.92
2023-04-29T11:56:28.432Z,3.47
2023-04-29T11:58:57.194Z,3.92
2023-04-29T12:01:26.742Z,4.85
2023-04-29T12:04:03.517Z,4.18
2023-04-29T12:06:30.922Z,4.50
2023-04-29T12:09:00.837Z,4.38
2023-04-29T12:11:30.109Z,4.82
2023-04-29T12:13:58.442Z,4.18
2023-04-29T12:16:27.065Z,3.67
2023-04-29T12:18:54.836Z,3.70
2023-04-29T12:21:25.281Z,4.97
2023-04-29T12:23:52.887Z,4.13
2023-04-29T12:26:23.615Z,4.35
2023-04-29T12:28:55.887Z,4.80
2023-04-29T12:31:24.508Z,4.40
2023-04-29T12:33:55.805Z,3.50
2023-04-29T12:36:23.875Z,4.05
2023-04-29T12:38:52.837Z,4.72
2023-04-29T12:41:21.436Z,5.03
2023-04-29T12:43:50.613Z,4.80
2023-04-29T12:46:18.189Z,3.92
2023-04-29T12:48:49.905Z,3.60
2023-04-29T12:51:18.334Z,4.05
2023-04-29T12:53:45.591Z,3.58
2023-04-29T12:56:13.581Z,3.90
2023-04-29T12:58:41.209Z,2.30
2023-04-29T13:01:11.184Z,3.47
2023-04-29T13:03:39.082Z,3.55
2023-04-29T13:06:09.819Z,3.22
2023-04-29T13:08:38.193Z,3.53
2023-04-29T13:11:06.130Z,3.00
2023-04-29T13:13:33.406Z,4.05
2023-04-29T13:16:00.741Z,3.97
2023-04-29T13:18:28.375Z,3.20
2023-04-29T13:20:56.115Z,3.92
2023-04-29T13:23:23.404Z,4.22
2023-04-29T13:25:51.423Z,3.90
2023-04-29T13:28:18.692Z,3.95
2023-04-29T13:30:45.863Z,3.88
2023-04-29T13:33:13.734Z,3.40
2023-04-29T13:35:42.115Z,4.05
2023-04-29T13:38:09.724Z,3.58
2023-04-29T13:40:41.635Z,4.18
2023-04-29T13:43:14.511Z,3.65
2023-04-29T13:45:47.613Z,4.35
2023-04-29T13:48:26.043Z,3.85
2023-04-29T13:54:17.301Z,3.00
2023-04-29T14:03:50.904Z,3.80
2023-04-29T14:06:18.276Z,3.30
2023-04-29T14:08:45.474Z,3.97
2023-04-29T14:11:12.905Z,3.78
2023-04-29T14:13:40.117Z,3.13
2023-04-29T14:16:10.577Z,3.65
2023-04-29T14:18:38.066Z,3.25
2023-04-29T14:21:05.589Z,2.65
2023-04-29T14:23:32.898Z,3.92
2023-04-29T14:26:11.492Z,3.47
2023-04-29T14:28:47.434Z,3.20
2023-04-29T14:31:15.517Z,3.03
2023-04-29T14:33:42.670Z,2.72
2023-04-29T14:36:09.785Z,2.05
2023-04-29T14:38:37.212Z,2.60
2023-04-29T14:41:04.658Z,2.50
2023-04-29T14:43:31.803Z,2.50
2023-04-29T14:46:01.960Z,2.42
2023-04-29T14:48:29.417Z,2.28
2023-04-29T14:50:56.648Z,1.77
2023-04-29T14:53:23.952Z,2.30
2023-04-29T14:55:51.415Z,2.10
2023-04-29T14:58:21.413Z,1.67
2023-04-29T15:00:49.558Z,1.80
2023-04-29T15:03:22.625Z,1.83
2023-04-29T15:05:51.631Z,2.65
2023-04-29T15:08:19.647Z,1.95
2023-04-29T15:10:47.842Z,2.05
2023-04-29T15:13:15.848Z,2.70
2023-04-29T15:15:43.120Z,2.05
2023-04-29T15:18:10.279Z,2.13
2023-04-29T15:20:38.220Z,2.45
2023-04-29T15:23:06.933Z,2.08
2023-04-29T15:25:34.906Z,2.22
2023-04-29T15:28:05.039Z,1.85
2023-04-29T15:30:33.017Z,1.30
2023-04-29T15:33:00.516Z,1.50
2023-04-29T15:35:27.957Z,1.40
2023-04-29T15:37:55.457Z,1.08
2023-04-29T15:40:22.790Z,1.10
2023-04-29T15:42:49.981Z,1.20
2023-04-29T15:45:17.347Z,1.30
2023-04-29T15:47:44.585Z,1.45
2023-04-29T15:50:11.992Z,2.42
2023-04-29T15:52:39.810Z,1.98
2023-04-29T15:55:07.805Z,1.85
2023-04-29T15:57:41.373Z,1.33
2023-04-29T16:00:09.522Z,1.23
2023-04-29T16:02:36.871Z,1.40
2023-04-29T16:05:04.505Z,1.27
2023-04-29T16:07:32.416Z,1.00
2023-04-29T16:10:00.640Z,1.02
2023-04-29T16:12:27.983Z,1.48
2023-04-29T16:14:55.233Z,1.48
2023-04-29T16:17:22.538Z,1.00
2023-04-29T16:19:50.036Z,1.55
2023-04-29T16:22:17.567Z,1.33
2023-04-29T16:24:45.479Z,1.10
2023-04-29T16:27:14.437Z,1.20
2023-04-29T16:29:42.377Z,1.10
2023-04-29T16:32:09.634Z,1.20
2023-04-29T16:34:39.307Z,1.10
2023-04-29T16:37:12.880Z,0.95
2023-04-29T16:39:46.624Z,1.15
2023-04-29T16:42:13.916Z,0.85
2023-04-29T16:44:41.156Z,1.02
2023-04-29T16:47:08.564Z,0.70
2023-04-29T16:49:35.958Z,0.57
2023-04-29T16:52:04.816Z,0.73
2023-04-29T16:54:32.364Z,0.93
2023-04-29T16:56:59.793Z,0.80
2023-04-29T16:59:27.140Z,0.65
2023-04-29T17:01:54.909Z,0.82
2023-04-29T17:04:23.066Z,0.85
2023-04-29T17:06:50.714Z,1.02
2023-04-29T17:09:17.961Z,1.00
2023-04-29T17:11:45.400Z,1.23
2023-04-29T17:14:13.295Z,1.50
2023-04-29T17:16:40.509Z,1.15
2023-04-29T17:19:08.510Z,1.40
2023-04-29T17:21:35.827Z,1.20
2023-04-29T17:24:04.312Z,1.45
2023-04-29T17:26:31.919Z,1.33
2023-04-29T17:28:59.451Z,1.15
2023-04-29T17:31:34.028Z,1.00
2023-04-29T17:34:18.809Z,1.42
2023-04-29T17:36:49.574Z,1.00
2023-04-29T17:39:17.063Z,1.23
2023-04-29T17:41:44.646Z,1.77
2023-04-29T17:44:12.200Z,1.40
2023-04-29T17:46:40.883Z,1.25
2023-04-29T17:49:07.965Z,1.17
2023-04-29T17:51:35.395Z,1.40
2023-04-29T17:54:05.090Z,1.45
2023-04-29T17:56:35.537Z,1.45
2023-04-29T17:59:05.389Z,1.55
2023-04-29T18:01:33.713Z,1.33
2023-04-29T18:04:01.269Z,1.25
2023-04-29T18:06:32.157Z,1.30
2023-04-29T18:08:59.761Z,1.70
2023-04-29T18:11:27.497Z,1.80
2023-04-29T18:13:54.848Z,1.90
2023-04-29T18:16:22.054Z,1.88
2023-04-29T18:18:55.262Z,1.85
2023-04-29T18:21:28.235Z,2.08
2023-04-29T18:23:56.370Z,2.00
2023-04-29T18:26:24.229Z,1.80
2023-04-29T18:28:51.613Z,2.20
2023-04-29T18:31:20.313Z,1.55
2023-04-29T18:33:48.655Z,1.92
2023-04-29T18:36:15.851Z,1.73
2023-04-29T18:38:46.064Z,1.90
2023-04-29T18:41:14.151Z,1.77
2023-04-29T18:43:41.747Z,1.85
2023-04-29T18:46:09.174Z,1.70
2023-04-29T18:48:38.490Z,2.10
2023-04-29T18:51:06.440Z,1.90
2023-04-29T18:53:33.746Z,1.88
2023-04-29T18:56:01.200Z,1.70
2023-04-29T18:58:28.635Z,2.70
2023-04-29T19:00:58.201Z,1.70
2023-04-29T19:03:25.638Z,2.25
2023-04-29T19:05:52.883Z,2.15
2023-04-29T19:08:20.328Z,2.38
2023-04-29T19:10:47.552Z,1.70
2023-04-29T19:13:15.301Z,1.50
2023-04-29T19:15:42.554Z,1.77
2023-04-29T19:18:09.844Z,1.45
2023-04-29T19:20:37.277Z,1.35
2023-04-29T19:23:04.836Z,1.20
2023-04-29T19:25:32.127Z,2.03
2023-04-29T19:27:59.377Z,1.88
2023-04-29T19:30:27.088Z,1.90
2023-04-29T19:32:54.386Z,1.73
2023-04-29T19:35:21.839Z,2.03
2023-04-29T19:37:52.016Z,1.40
2023-04-29T19:40:19.651Z,1.40
2023-04-29T19:42:47.026Z,1.90
2023-04-29T19:45:14.061Z,3.25
2023-04-29T19:47:41.623Z,1.77
2023-04-29T19:50:09.897Z,2.30
2023-04-29T19:52:37.370Z,2.38
2023-04-29T19:55:05.237Z,2.47
2023-04-29T19:57:33.472Z,1.90
2023-04-29T20:00:00.713Z,1.40
2023-04-29T20:02:28.069Z,1.80
2023-04-29T20:04:56.255Z,2.03
2023-04-29T20:07:23.407Z,1.38
2023-04-29T20:09:50.706Z,1.42
2023-04-29T20:12:18.395Z,2.17
2023-04-29T20:14:45.861Z,1.42
2023-04-29T20:17:14.025Z,0.90
2023-04-29T20:19:41.754Z,1.83
2023-04-29T20:22:09.102Z,3.30
2023-04-29T20:24:36.689Z,2.63
2023-04-29T20:27:04.753Z,1.63
2023-04-29T20:29:32.345Z,1.42
2023-04-29T20:31:59.527Z,1.52
2023-04-29T20:34:26.615Z,1.58
2023-04-29T20:36:53.995Z,1.35
2023-04-29T20:39:21.225Z,1.13
2023-04-29T20:41:48.923Z,1.10
2023-04-29T20:44:16.047Z,1.63
2023-04-29T20:46:43.325Z,1.88
2023-04-29T20:49:10.394Z,1.08
2023-04-29T20:51:37.775Z,1.30
2023-04-29T20:54:04.978Z,1.38
2023-04-29T20:56:32.419Z,1.50
2023-04-29T20:59:00.167Z,1.50
2023-04-29T21:01:27.739Z,1.23
2023-04-29T21:03:55.006Z,1.52
2023-04-29T21:06:22.721Z,1.77
2023-04-29T21:08:49.966Z,2.50
2023-04-29T21:11:17.307Z,2.05
2023-04-29T21:13:50.173Z,1.73
2023-04-29T21:16:18.102Z,1.83
2023-04-29T21:18:45.793Z,1.13
2023-04-29T21:21:15.295Z,2.45
2023-04-29T21:23:42.370Z,1.50
2023-04-29T21:26:09.665Z,1.88
2023-04-29T21:28:36.893Z,2.63
2023-04-29T21:31:04.339Z,1.63
2023-04-29T21:33:31.627Z,1.65
2023-04-29T21:36:00.177Z,1.70
2023-04-29T21:38:28.516Z,2.50
2023-04-29T21:40:59.526Z,1.40
2023-04-29T21:43:28.384Z,1.92
2023-04-29T21:45:55.872Z,1.50
2023-04-29T21:48:23.548Z,1.42
2023-04-29T21:50:51.350Z,2.25
2023-04-29T21:53:19.493Z,2.47
2023-04-29T21:55:47.022Z,1.45
2023-04-29T21:58:14.403Z,1.75
2023-04-29T22:00:48.253Z,2.42
2023-04-29T22:03:15.741Z,1.90
2023-04-29T22:05:42.941Z,2.92
2023-04-29T22:08:09.976Z,2.90
2023-04-29T22:10:40.318Z,1.65
2023-04-29T22:13:08.363Z,2.22
2023-04-29T22:15:35.949Z,2.30
2023-04-29T22:18:03.398Z,1.85
2023-04-29T22:20:31.294Z,2.63
2023-04-29T22:22:59.743Z,1.77
2023-04-29T22:25:27.099Z,3.92
2023-04-29T22:27:54.278Z,2.88
2023-04-29T22:30:21.665Z,1.98
2023-04-29T22:32:49.205Z,2.25
2023-04-29T22:35:16.846Z,2.85
2023-04-29T22:37:44.092Z,2.13
2023-04-29T22:40:12.115Z,1.80
2023-04-29T22:42:40.016Z,2.40
2023-04-29T22:45:07.836Z,2.40
2023-04-29T22:47:34.860Z,1.65
2023-04-29T22:50:02.158Z,2.97
2023-04-29T22:52:29.346Z,2.13
2023-04-29T22:54:56.586Z,1.75
2023-04-29T22:57:23.679Z,2.75
2023-04-29T22:59:57.420Z,2.03
2023-04-29T23:02:29.684Z,2.13
2023-04-29T23:04:57.957Z,2.85
2023-04-29T23:07:26.409Z,2.70
2023-04-29T23:09:53.762Z,2.28
2023-04-29T23:12:21.304Z,2.25
2023-04-29T23:14:51.438Z,2.05
2023-04-29T23:17:18.780Z,1.75
2023-04-29T23:19:46.314Z,1.98
2023-04-29T23:22:13.640Z,2.88
2023-04-29T23:24:40.977Z,2.20
2023-04-29T23:27:08.075Z,6.45
2023-04-29T23:29:35.614Z,1.73
2023-04-29T23:32:03.607Z,2.25
2023-04-29T23:34:30.870Z,2.50
2023-04-29T23:36:58.273Z,1.85
2023-04-29T23:39:25.690Z,3.33
2023-04-29T23:41:52.972Z,4.10
2023-04-29T23:44:20.287Z,2.05
2023-04-29T23:46:47.769Z,2.17
2023-04-29T23:49:14.888Z,3.13
2023-04-29T23:51:41.968Z,2.42
2023-04-29T23:54:09.129Z,3.22
2023-04-29T23:56:36.297Z,2.17
2023-04-29T23:59:03.538Z,3.55
